Terminal Aerodrome Forecast
Issued by NWS

Home | Current Version | Previous Version | Text Only | Print | Product List | Glossary On
Versions: 1 2 3 4 5 6 7 8 9 10 11 12 13 14 15 16 17 18 19
564
FTUS46 KMFR 271730
TAFOTH
TAF
KOTH 271730Z 2718/2818 35012G18KT P6SM SCT020 OVC025
     FM272100 35016G23KT P6SM BKN025
     FM280300 35014G20KT P6SM SCT007 OVC015
     FM280600 36010KT P6SM OVC008
     FM281000 36008KT 2SM BR OVC004
     FM281500 01008KT P6SM OVC010=

USA.gov is the U.S. government's official web portal to all federal, state and local government web resources and services.